Time;durP1;ratioP1;P1;durP2;ratioP2;P2;SDS_P1;SDS_P2;PMS_P1;PMS_P2;Temp;Humidity;BMP_temperature;BMP_pressure;BME280_temperature;BME280_humidity;BME280_pressure;Samples;Min_cycle;Max_cycle;Signal;HPM_P1;HPM_P2
2021/12/17 00:05:03;;;;;;;44.33;25.13;;;;;;;5.54;100.00;101934.19;4976221;28;20042;-72
2021/12/17 00:07:49;;;;;;;48.75;27.17;;;;;;;5.51;100.00;101947.09;4975431;28;20034;-70
2021/12/17 00:10:35;;;;;;;48.28;26.38;;;;;;;5.53;100.00;101945.41;4975675;28;20042;-72
2021/12/17 00:13:21;;;;;;;46.03;25.30;;;;;;;5.43;100.00;101943.44;4976268;28;20085;-73
2021/12/17 00:16:14;;;;;;;47.58;25.95;;;;;;;5.51;100.00;101944.50;4976014;28;20471;-72
2021/12/17 00:19:13;;;;;;;46.10;25.70;;;;;;;5.16;100.00;101939.34;4975807;28;20097;-71
2021/12/17 00:49:24;;;;;;;48.75;26.45;;;;;;;5.44;100.00;101936.56;4975680;28;20037;-72
2021/12/17 00:52:10;;;;;;;49.90;26.58;;;;;;;5.14;100.00;101941.06;4962145;28;20031;-71
2021/12/17 00:54:56;;;;;;;46.83;26.13;;;;;;;5.43;100.00;101931.34;4975064;28;20467;-71
2021/12/17 00:57:44;;;;;;;53.70;28.55;;;;;;;5.61;100.00;101934.34;4975578;28;20458;-71
2021/12/17 01:00:29;;;;;;;49.63;26.35;;;;;;;5.64;100.00;101931.81;4975639;28;20448;-72
2021/12/17 01:03:15;;;;;;;47.88;26.75;;;;;;;5.71;100.00;101932.81;4975657;28;20026;-72
2021/12/17 01:06:02;;;;;;;48.53;27.23;;;;;;;5.87;100.00;101932.31;4975432;28;20081;-72
2021/12/17 01:08:49;;;;;;;48.75;26.73;;;;;;;5.68;100.00;101932.75;4975617;28;20113;-72
2021/12/17 01:11:36;;;;;;;46.42;25.52;;;;;;;5.66;100.00;101937.06;4979515;28;20086;-72
2021/12/17 01:14:23;;;;;;;50.25;27.05;;;;;;;5.63;100.00;101934.38;4978701;28;20044;-71
2021/12/17 01:17:10;;;;;;;56.90;28.88;;;;;;;5.65;100.00;101930.06;4978416;28;20460;-72
2021/12/17 01:41:13;;;;;;;51.30;28.13;;;;;;;5.79;100.00;101895.72;4978826;28;20568;-72
2021/12/17 01:43:59;;;;;;;53.20;28.67;;;;;;;5.57;100.00;101888.31;4964434;28;20058;-72
2021/12/17 01:46:49;;;;;;;54.58;28.60;;;;;;;5.58;100.00;101886.63;4978754;28;20035;-71
2021/12/17 02:01:37;;;;;;;52.97;28.40;;;;;;;4.90;100.00;101859.97;4977611;28;20027;-72
2021/12/17 02:04:23;;;;;;;54.53;29.27;;;;;;;4.77;100.00;101857.94;4978102;28;20050;-71
2021/12/17 02:07:08;;;;;;;53.15;27.65;;;;;;;4.81;100.00;101849.38;4977311;28;20097;-72
2021/12/17 02:31:25;;;;;;;59.95;30.00;;;;;;;5.05;100.00;101833.47;4899258;29;20029;-71
2021/12/17 02:34:34;;;;;;;61.10;30.27;;;;;;;4.90;100.00;101814.94;4898835;29;20171;-71
2021/12/17 02:37:24;;;;;;;55.42;29.30;;;;;;;4.96;100.00;101800.41;4976754;28;20026;-71
2021/12/17 02:45:48;;;;;;;53.40;29.42;;;;;;;4.87;100.00;101794.97;4977449;28;20030;-71
2021/12/17 02:48:36;;;;;;;57.78;31.67;;;;;;;4.91;100.00;101795.94;4963658;28;20031;-72
2021/12/17 02:51:22;;;;;;;58.13;31.30;;;;;;;5.10;100.00;101791.16;4976654;28;20034;-71
2021/12/17 02:54:09;;;;;;;60.00;31.15;;;;;;;5.10;100.00;101792.88;4976932;28;20101;-71
2021/12/17 02:56:55;;;;;;;56.67;30.48;;;;;;;5.13;100.00;101779.97;4977133;28;20026;-71
2021/12/17 02:59:41;;;;;;;60.40;30.63;;;;;;;4.97;100.00;101793.47;4976822;28;20444;-71
2021/12/17 03:02:30;;;;;;;59.75;30.48;;;;;;;4.65;100.00;101789.25;4976675;28;20443;-71
2021/12/17 03:05:16;;;;;;;59.75;31.10;;;;;;;5.07;100.00;101798.03;4976603;28;20027;-72
2021/12/17 03:08:06;;;;;;;56.72;30.02;;;;;;;5.59;100.00;101779.19;4976290;28;20066;-72
2021/12/17 03:10:52;;;;;;;58.45;31.27;;;;;;;5.22;100.00;101777.56;4976523;28;20031;-71
2021/12/17 03:13:38;;;;;;;56.58;31.23;;;;;;;5.10;100.00;101765.19;4976236;28;20104;-72
2021/12/17 03:16:39;;;;;;;61.35;30.83;;;;;;;4.74;100.00;101761.78;4976058;28;20089;-72
2021/12/17 03:25:15;;;;;;;57.85;30.90;;;;;;;5.16;100.00;101762.72;4976222;28;20054;-72
2021/12/17 03:28:01;;;;;;;57.75;31.15;;;;;;;4.78;100.00;101754.94;4976074;28;20031;-71
2021/12/17 03:30:47;;;;;;;56.80;30.63;;;;;;;4.93;100.00;101748.38;4975704;28;20081;-71
2021/12/17 03:33:34;;;;;;;55.85;30.25;;;;;;;5.08;100.00;101747.84;4976505;28;20129;-71
2021/12/17 03:36:20;;;;;;;59.78;30.83;;;;;;;5.18;100.00;101755.84;4976066;28;20034;-71
2021/12/17 03:39:06;;;;;;;57.22;30.73;;;;;;;5.43;100.00;101761.53;4975752;28;20037;-72
2021/12/17 03:41:53;;;;;;;57.03;31.05;;;;;;;5.27;100.00;101763.81;4976193;28;20050;-74
2021/12/17 03:44:39;;;;;;;54.65;29.45;;;;;;;5.14;100.00;101761.81;4975701;28;20038;-72
2021/12/17 03:47:25;;;;;;;54.35;28.90;;;;;;;5.22;100.00;101762.84;4975943;28;20062;-71
2021/12/17 03:50:11;;;;;;;53.65;29.33;;;;;;;4.96;100.00;101761.44;4976059;28;20030;-72
2021/12/17 03:52:58;;;;;;;54.50;29.85;;;;;;;5.08;100.00;101766.91;4962600;28;20061;-71
2021/12/17 03:55:44;;;;;;;53.60;29.23;;;;;;;5.03;100.00;101776.28;4976393;28;20041;-71
2021/12/17 03:58:30;;;;;;;54.08;30.38;;;;;;;5.16;100.00;101780.91;4962287;28;20026;-71
2021/12/17 04:01:16;;;;;;;53.35;29.45;;;;;;;5.17;100.00;101787.88;4975887;28;20030;-72
2021/12/17 04:04:02;;;;;;;51.75;27.92;;;;;;;5.16;100.00;101787.84;4976101;28;20041;-73
2021/12/17 04:06:47;;;;;;;56.38;30.88;;;;;;;5.31;100.00;101796.81;4975561;28;20023;-72
2021/12/17 04:09:33;;;;;;;49.83;28.90;;;;;;;5.39;100.00;101797.84;4975716;28;20036;-72
2021/12/17 04:12:24;;;;;;;51.97;28.20;;;;;;;5.39;100.00;101800.44;4975787;28;20027;-72
2021/12/17 04:15:10;;;;;;;51.17;28.52;;;;;;;5.30;100.00;101789.88;4975542;28;20117;-71
2021/12/17 04:17:58;;;;;;;51.42;27.80;;;;;;;5.56;100.00;101785.22;4975290;28;20054;-72
2021/12/17 04:20:43;;;;;;;51.95;29.45;;;;;;;5.92;100.00;101778.13;4975255;28;20456;-72
2021/12/17 04:23:32;;;;;;;52.17;28.55;;;;;;;5.55;100.00;101779.97;4975842;28;20035;-72
2021/12/17 04:26:19;;;;;;;50.08;27.90;;;;;;;5.31;100.00;101775.16;4975124;28;20546;-72
2021/12/17 04:29:06;;;;;;;52.10;27.95;;;;;;;5.16;100.00;101767.06;4975771;28;20034;-72
2021/12/17 04:31:54;;;;;;;51.25;26.90;;;;;;;4.77;100.00;101768.78;4975215;28;20349;-72
2021/12/17 04:34:40;;;;;;;49.63;27.75;;;;;;;4.79;100.00;101780.09;4961813;28;20030;-71
2021/12/17 04:37:26;;;;;;;53.65;29.05;;;;;;;4.90;100.00;101773.38;4975254;28;20033;-71
2021/12/17 04:40:12;;;;;;;53.63;28.00;;;;;;;4.51;100.00;101765.56;4975666;28;20101;-70
2021/12/17 04:43:14;;;;;;;52.83;28.30;;;;;;;4.73;100.00;101780.81;4963014;28;20102;-72
2021/12/17 04:46:15;;;;;;;51.03;28.83;;;;;;;4.84;100.00;101771.56;4979192;28;20443;-73
2021/12/17 04:58:14;;;;;;;54.65;28.67;;;;;;;4.82;100.00;101765.44;4979538;28;20026;-72
2021/12/17 05:01:02;;;;;;;48.10;27.63;;;;;;;4.59;100.00;101763.19;4979575;28;20037;-72
2021/12/17 05:03:48;;;;;;;52.78;28.40;;;;;;;4.77;100.00;101767.06;4978821;28;20034;-71
2021/12/17 05:06:34;;;;;;;52.20;29.42;;;;;;;4.73;100.00;101761.75;4964396;28;20027;-71
2021/12/17 05:09:30;;;;;;;53.20;28.02;;;;;;;4.76;100.00;101772.22;4978719;28;20456;-71
2021/12/17 05:18:40;;;;;;;46.05;26.85;;;;;;;4.59;100.00;101760.59;4978511;28;20464;-72
2021/12/17 05:21:25;;;;;;;49.85;27.40;;;;;;;4.91;100.00;101763.03;4978169;28;20026;-71
2021/12/17 05:24:11;;;;;;;50.30;27.58;;;;;;;4.98;100.00;101764.94;4978549;28;20113;-70
2021/12/17 05:26:57;;;;;;;50.47;28.73;;;;;;;4.88;100.00;101770.78;4978002;28;20071;-71
2021/12/17 05:29:43;;;;;;;51.67;27.80;;;;;;;4.74;100.00;101767.00;4978571;28;20034;-72
2021/12/17 05:32:28;;;;;;;52.33;28.83;;;;;;;4.61;100.00;101764.97;4978009;28;20117;-71
2021/12/17 05:35:14;;;;;;;50.80;28.85;;;;;;;4.92;100.00;101770.00;4978367;28;20023;-71
2021/12/17 05:38:00;;;;;;;58.85;30.77;;;;;;;4.79;100.00;101767.97;4978040;28;20039;-71
2021/12/17 05:40:46;;;;;;;55.25;29.70;;;;;;;5.10;100.00;101762.59;4978167;28;20058;-71
2021/12/17 05:43:36;;;;;;;54.92;30.48;;;;;;;5.07;100.00;101753.88;4977920;28;20463;-70
2021/12/17 05:46:37;;;;;;;56.20;31.40;;;;;;;5.03;100.00;101747.72;4964193;28;20035;-71
2021/12/17 05:49:25;;;;;;;66.63;32.55;;;;;;;5.05;100.00;101724.38;4978033;28;20033;-71
2021/12/17 05:52:10;;;;;;;53.88;30.23;;;;;;;5.17;100.00;101725.53;4978244;28;20027;-71
2021/12/17 05:54:56;;;;;;;53.50;29.83;;;;;;;5.12;100.00;101721.97;4963531;28;20026;-71
2021/12/17 05:57:42;;;;;;;53.33;28.40;;;;;;;5.38;100.00;101737.19;4978826;28;20108;-72
2021/12/17 06:00:31;;;;;;;51.00;28.13;;;;;;;5.29;100.00;101736.16;4978206;28;20054;-71
2021/12/17 06:03:18;;;;;;;45.58;24.80;;;;;;;5.04;100.00;101744.31;4977596;28;20074;-71
2021/12/17 06:06:04;;;;;;;45.95;24.65;;;;;;;5.09;100.00;101741.78;4977833;28;20031;-71
2021/12/17 06:08:49;;;;;;;47.60;25.65;;;;;;;4.74;100.00;101741.03;4977411;28;20114;-71
2021/12/17 06:11:36;;;;;;;53.13;26.35;;;;;;;4.59;100.00;101743.28;4963710;28;20093;-71
2021/12/17 06:14:22;;;;;;;51.03;27.20;;;;;;;4.93;100.00;101738.00;4963465;28;20031;-71
2021/12/17 06:17:07;;;;;;;50.90;26.40;;;;;;;4.67;100.00;101746.91;4977283;28;20512;-71
2021/12/17 06:19:53;;;;;;;50.38;27.30;;;;;;;4.57;100.00;101742.38;4963615;28;20041;-72
2021/12/17 06:22:40;;;;;;;49.20;27.15;;;;;;;4.68;100.00;101743.50;4976879;28;20018;-72
2021/12/17 06:25:25;;;;;;;53.83;29.63;;;;;;;4.72;100.00;101749.63;4962776;28;20367;-72
2021/12/17 06:28:13;;;;;;;54.53;31.20;;;;;;;4.74;100.00;101747.94;4977411;28;20038;-72
2021/12/17 06:30:58;;;;;;;51.83;30.45;;;;;;;4.93;100.00;101745.78;4976921;28;20110;-71
2021/12/17 06:33:45;;;;;;;53.95;29.90;;;;;;;4.84;100.00;101743.00;4976708;28;20022;-72
2021/12/17 06:36:31;;;;;;;52.47;31.15;;;;;;;4.99;100.00;101755.44;4976841;28;20037;-73
2021/12/17 06:39:17;;;;;;;50.95;31.00;;;;;;;5.06;100.00;101763.38;4976879;28;20112;-71
2021/12/17 06:42:04;;;;;;;49.13;28.77;;;;;;;5.08;100.00;101764.31;4977026;28;20097;-72
2021/12/17 06:44:50;;;;;;;43.63;24.90;;;;;;;5.22;100.00;101759.38;4976820;28;20031;-71
2021/12/17 06:47:37;;;;;;;42.40;23.80;;;;;;;5.71;100.00;101754.31;4963718;28;20459;-71
2021/12/17 07:11:47;;;;;;;32.05;19.15;;;;;;;5.91;100.00;101731.28;4977077;28;20031;-71
2021/12/17 07:17:40;;;;;;;33.00;18.80;;;;;;;7.01;100.00;101724.31;4976158;28;20080;-71
2021/12/17 07:23:36;;;;;;;30.75;17.83;;;;;;;6.42;100.00;101730.41;4976724;28;20512;-72
2021/12/17 07:41:02;;;;;;;31.83;18.65;;;;;;;6.20;100.00;101743.06;4975946;28;20031;-71
2021/12/17 07:43:56;;;;;;;31.67;18.65;;;;;;;6.35;100.00;101744.16;4975929;28;20023;-72
2021/12/17 07:46:42;;;;;;;34.40;20.45;;;;;;;6.60;100.00;101754.13;4975951;28;20426;-71
2021/12/17 07:49:28;;;;;;;29.70;18.17;;;;;;;7.06;100.00;101758.22;4975632;28;20118;-72
2021/12/17 07:52:14;;;;;;;30.83;17.55;;;;;;;6.90;100.00;101764.97;4976684;28;20034;-72
2021/12/17 07:54:59;;;;;;;29.05;18.02;;;;;;;6.91;100.00;101761.50;4961905;28;20023;-72
2021/12/17 07:57:45;;;;;;;29.52;18.90;;;;;;;7.00;100.00;101753.84;4976321;28;20337;-73
2021/12/17 08:00:31;;;;;;;30.45;19.17;;;;;;;6.86;100.00;101751.88;4975954;28;20329;-72
2021/12/17 08:03:17;;;;;;;35.75;20.58;;;;;;;6.80;100.00;101754.41;4975541;28;20081;-72
2021/12/17 08:06:04;;;;;;;39.67;23.60;;;;;;;7.35;100.00;101749.06;4975718;28;20026;-72
2021/12/17 08:08:49;;;;;;;38.58;23.80;;;;;;;7.25;100.00;101742.88;4975947;28;20105;-71
2021/12/17 08:11:39;;;;;;;33.97;20.77;;;;;;;7.30;100.00;101745.50;4975434;28;20039;-71
2021/12/17 08:14:26;;;;;;;34.88;21.60;;;;;;;6.90;100.00;101743.25;4975378;28;20033;-72
2021/12/17 08:32:18;;;;;;;37.75;22.63;;;;;;;6.62;100.00;101733.28;4960363;28;20038;-72
2021/12/17 08:35:05;;;;;;;38.72;24.05;;;;;;;7.13;100.00;101723.59;4959807;29;20027;-72
2021/12/17 08:37:52;;;;;;;38.80;24.52;;;;;;;7.01;100.00;101713.91;4959605;28;20031;-72
2021/12/17 08:40:38;;;;;;;33.13;21.50;;;;;;;6.26;100.00;101711.94;4959834;28;20042;-72
2021/12/17 08:43:25;;;;;;;40.92;24.75;;;;;;;7.27;100.00;101698.59;4959759;28;20400;-72
2021/12/17 08:46:12;;;;;;;81.53;33.45;;;;;;;7.32;100.00;101700.34;4959723;28;20143;-72
2021/12/17 08:48:58;;;;;;;67.22;31.13;;;;;;;7.33;100.00;101694.31;4959820;28;20459;-73
2021/12/17 08:51:44;;;;;;;54.90;29.48;;;;;;;7.10;100.00;101687.94;4946097;29;20118;-72
2021/12/17 08:54:30;;;;;;;38.75;24.13;;;;;;;7.26;100.00;101668.13;4959701;28;20031;-72
2021/12/17 08:57:16;;;;;;;44.70;25.58;;;;;;;6.60;100.00;101677.75;4959090;28;20035;-72
2021/12/17 09:00:07;;;;;;;46.55;28.48;;;;;;;7.16;100.00;101663.69;4960157;28;20031;-72
2021/12/17 09:02:59;;;;;;;45.92;28.10;;;;;;;7.13;100.00;101661.03;4959040;28;20023;-72
2021/12/17 09:05:46;;;;;;;39.95;25.40;;;;;;;6.98;100.00;101653.94;4959625;28;20027;-72
2021/12/17 09:08:32;;;;;;;40.17;24.98;;;;;;;6.51;100.00;101655.03;4959061;28;20507;-72
2021/12/17 09:11:18;;;;;;;37.65;23.73;;;;;;;7.24;100.00;101646.41;4959382;28;20386;-73
2021/12/17 09:14:05;;;;;;;39.22;24.02;;;;;;;6.21;100.00;101643.31;4959448;28;20054;-71
2021/12/17 09:16:51;;;;;;;38.58;24.00;;;;;;;6.83;100.00;101637.25;4958899;28;20133;-72
2021/12/17 09:19:37;;;;;;;40.95;25.55;;;;;;;6.92;100.00;101630.44;4959844;28;20037;-72
2021/12/17 09:22:23;;;;;;;40.63;25.25;;;;;;;7.14;100.00;101624.59;4959132;28;20089;-72
2021/12/17 09:25:09;;;;;;;37.40;24.02;;;;;;;7.23;100.00;101616.00;4958891;28;20094;-72
2021/12/17 09:27:55;;;;;;;42.08;26.80;;;;;;;6.60;100.00;101620.47;4958889;28;20027;-73
2021/12/17 09:30:41;;;;;;;42.00;26.65;;;;;;;7.15;100.00;101618.50;4957630;28;20070;-73
2021/12/17 09:33:26;;;;;;;45.05;27.40;;;;;;;7.26;100.00;101616.00;4958809;28;20141;-72
2021/12/17 09:36:12;;;;;;;43.80;26.98;;;;;;;6.99;100.00;101616.59;4958838;28;20046;-73
2021/12/17 09:38:58;;;;;;;47.08;28.45;;;;;;;7.65;100.00;101619.00;4958312;28;20429;-73
2021/12/17 09:41:50;;;;;;;40.45;24.98;;;;;;;7.35;100.00;101608.31;4959009;28;20109;-73
2021/12/17 09:44:36;;;;;;;37.97;24.98;;;;;;;7.50;100.00;101606.72;4958270;28;20070;-73
2021/12/17 09:47:22;;;;;;;38.80;24.05;;;;;;;6.87;100.00;101590.41;4958470;28;20448;-72
2021/12/17 09:50:10;;;;;;;36.83;23.67;;;;;;;7.34;100.00;101594.38;4958302;28;20031;-72
2021/12/17 09:52:56;;;;;;;36.97;24.17;;;;;;;7.64;100.00;101593.78;4959586;28;20038;-71
2021/12/17 09:55:42;;;;;;;38.88;24.92;;;;;;;7.67;100.00;101593.81;4958391;28;20487;-72
2021/12/17 09:58:29;;;;;;;41.25;27.27;;;;;;;7.63;100.00;101594.66;4958825;28;20436;-72
2021/12/17 10:01:14;;;;;;;43.60;26.73;;;;;;;7.55;100.00;101585.91;4958117;28;20476;-72
2021/12/17 10:04:20;;;;;;;43.25;26.98;;;;;;;7.76;100.00;101592.13;4958357;28;20046;-73
2021/12/17 10:07:24;;;;;;;46.65;28.58;;;;;;;7.59;100.00;101583.31;4958120;28;20027;-72
2021/12/17 10:10:12;;;;;;;49.35;30.23;;;;;;;7.85;100.00;101589.63;4958905;28;20037;-71
2021/12/17 10:13:08;;;;;;;44.15;28.75;;;;;;;7.93;100.00;101590.56;4956824;29;20024;-72
2021/12/17 10:15:58;;;;;;;46.63;29.55;;;;;;;7.82;100.00;101586.09;4957991;28;20039;-73
2021/12/17 10:18:49;;;;;;;48.78;29.90;;;;;;;7.89;100.00;101585.28;4958035;28;20070;-73
2021/12/17 10:21:38;;;;;;;47.30;28.65;;;;;;;8.02;100.00;101581.88;4957966;28;20024;-72
2021/12/17 10:24:24;;;;;;;46.17;27.95;;;;;;;7.90;100.00;101581.81;4958170;28;20027;-73
2021/12/17 10:27:26;;;;;;;39.22;25.10;;;;;;;7.66;100.00;101579.00;4957615;28;20431;-73
2021/12/17 10:30:21;;;;;;;46.63;29.08;;;;;;;7.85;100.00;101581.78;4957935;28;20499;-73
2021/12/17 10:33:14;;;;;;;46.22;27.90;;;;;;;7.90;100.00;101574.88;4957542;28;20041;-72
2021/12/17 10:36:03;;;;;;;40.85;26.58;;;;;;;7.97;100.00;101576.66;4957369;28;20464;-73
2021/12/17 10:38:49;;;;;;;46.83;28.45;;;;;;;8.13;100.00;101575.91;4956699;28;20110;-73
2021/12/17 10:41:45;;;;;;;40.90;26.73;;;;;;;7.99;100.00;101576.66;4958040;28;20115;-72
2021/12/17 10:44:31;;;;;;;38.40;24.95;;;;;;;8.21;100.00;101562.91;4957416;28;20539;-72
2021/12/17 10:47:31;;;;;;;45.85;29.10;;;;;;;8.48;100.00;101565.66;4957713;28;20042;-73
2021/12/17 10:50:27;;;;;;;62.92;34.60;;;;;;;8.13;100.00;101565.47;4957899;28;20372;-73
2021/12/17 10:53:14;;;;;;;82.38;39.15;;;;;;;7.63;100.00;101560.75;4957922;28;20069;-74
2021/12/17 10:56:00;;;;;;;68.82;36.85;;;;;;;7.57;100.00;101561.59;4957390;28;20023;-73
2021/12/17 10:58:59;;;;;;;61.80;32.85;;;;;;;7.77;100.00;101562.59;4957518;28;20050;-73
2021/12/17 11:01:48;;;;;;;59.40;33.58;;;;;;;8.09;100.00;101568.91;4957201;28;20413;-73
2021/12/17 11:04:37;;;;;;;67.32;37.50;;;;;;;7.77;100.00;101561.72;4956571;28;20346;-73
2021/12/17 11:07:23;;;;;;;53.28;32.08;;;;;;;8.05;100.00;101555.81;4956884;28;20134;-73
2021/12/17 11:10:09;;;;;;;44.08;27.85;;;;;;;7.58;100.00;101550.28;4957885;28;20031;-73
2021/12/17 11:12:55;;;;;;;45.45;28.70;;;;;;;7.86;100.00;101533.09;4956245;28;20405;-74
2021/12/17 11:15:41;;;;;;;57.38;35.95;;;;;;;7.81;100.00;101524.34;4956455;28;20058;-74
2021/12/17 11:18:27;;;;;;;50.67;32.53;;;;;;;7.79;100.00;101529.56;4957213;28;20436;-74
2021/12/17 11:21:13;;;;;;;57.63;35.40;;;;;;;7.79;100.00;101526.06;4956708;28;20033;-74
2021/12/17 11:24:00;;;;;;;57.25;34.70;;;;;;;8.01;100.00;101520.13;4956418;28;20030;-73
2021/12/17 11:26:47;;;;;;;63.95;39.63;;;;;;;8.18;100.00;101513.25;4956752;28;20066;-72
2021/12/17 11:29:34;;;;;;;56.67;34.72;;;;;;;8.28;100.00;101502.03;4957608;28;20030;-71
2021/12/17 11:32:20;;;;;;;58.33;35.83;;;;;;;7.79;100.00;101486.94;4956047;28;20043;-72
2021/12/17 11:35:06;;;;;;;68.85;40.90;;;;;;;8.09;100.00;101487.13;4955842;28;20086;-73
2021/12/17 11:37:56;;;;;;;66.88;38.92;;;;;;;7.87;100.00;101487.84;4956684;28;20190;-73
2021/12/17 11:40:56;;;;;;;62.03;39.00;;;;;;;7.86;100.00;101475.69;4956206;28;20023;-72
2021/12/17 11:43:58;;;;;;;64.15;37.58;;;;;;;7.68;100.00;101479.06;4956581;28;20027;-74
2021/12/17 11:47:03;;;;;;;58.45;36.33;;;;;;;7.82;100.00;101456.56;4956605;28;20114;-74
2021/12/17 11:49:51;;;;;;;62.17;37.63;;;;;;;7.91;100.00;101450.50;4956392;28;20417;-74
2021/12/17 11:52:39;;;;;;;62.05;39.25;;;;;;;7.70;100.00;101442.56;4956223;28;20138;-73
2021/12/17 11:55:34;;;;;;;63.30;36.70;;;;;;;7.67;100.00;101434.75;4956309;28;20031;-73
2021/12/17 11:58:42;;;;;;;67.82;39.60;;;;;;;8.19;100.00;101431.47;4956398;28;20063;-73
2021/12/17 12:01:50;;;;;;;54.83;34.88;;;;;;;8.12;100.00;101430.59;4956276;28;20098;-73
2021/12/17 12:04:36;;;;;;;53.40;34.58;;;;;;;7.92;100.00;101434.00;4956278;28;20106;-74
2021/12/17 12:07:24;;;;;;;53.92;33.33;;;;;;;8.28;100.00;101418.50;4955994;28;20042;-72
2021/12/17 12:10:11;;;;;;;52.75;32.70;;;;;;;7.89;100.00;101419.19;4956190;28;20034;-74
2021/12/17 12:12:58;;;;;;;46.13;30.45;;;;;;;8.21;100.00;101416.75;4956338;28;20027;-74
2021/12/17 12:15:44;;;;;;;51.33;31.25;;;;;;;8.06;100.00;101412.31;4956247;28;20030;-73
2021/12/17 12:18:45;;;;;;;51.55;31.25;;;;;;;8.02;100.00;101420.09;4956339;28;20130;-74
2021/12/17 12:21:36;;;;;;;43.13;28.88;;;;;;;8.54;100.00;101416.81;4955984;28;20444;-72
2021/12/17 12:24:22;;;;;;;48.83;28.30;;;;;;;7.98;100.00;101413.13;4957043;28;20465;-73
2021/12/17 12:27:27;;;;;;;41.28;25.67;;;;;;;8.21;100.00;101409.78;4955817;28;20038;-73
2021/12/17 12:30:14;;;;;;;39.60;25.25;;;;;;;8.13;100.00;101414.09;4955625;28;20024;-73
2021/12/17 12:33:08;;;;;;;40.25;26.05;;;;;;;8.10;100.00;101423.63;4955193;29;20046;-73
2021/12/17 12:35:57;;;;;;;38.72;26.08;;;;;;;8.29;100.00;101422.84;4955958;28;20098;-74
2021/12/17 12:38:43;;;;;;;40.65;25.92;;;;;;;8.49;100.00;101427.25;4955813;28;20474;-73
2021/12/17 12:41:56;;;;;;;43.47;26.02;;;;;;;8.76;100.00;101432.53;4956490;28;20027;-72
2021/12/17 12:44:42;;;;;;;42.20;27.17;;;;;;;8.64;100.00;101424.66;4955778;28;20443;-73
2021/12/17 12:47:31;;;;;;;40.05;26.38;;;;;;;8.74;100.00;101439.50;4955970;28;20031;-73
2021/12/17 12:50:20;;;;;;;38.22;24.20;;;;;;;8.59;100.00;101442.06;4955710;28;20027;-72
2021/12/17 12:53:11;;;;;;;41.83;26.20;;;;;;;8.71;100.00;101442.09;4956300;28;20054;-73
2021/12/17 12:55:56;;;;;;;42.55;27.10;;;;;;;7.94;100.00;101458.34;4956174;28;20464;-72
2021/12/17 12:58:48;;;;;;;38.17;25.33;;;;;;;8.07;100.00;101450.59;4956453;28;20031;-72
2021/12/17 13:01:34;;;;;;;45.45;27.80;;;;;;;8.32;100.00;101447.22;4955803;28;20062;-72
2021/12/17 13:04:20;;;;;;;45.40;27.88;;;;;;;8.20;100.00;101441.94;4957913;28;20113;-72
2021/12/17 13:07:06;;;;;;;42.67;26.52;;;;;;;8.60;100.00;101442.97;4959774;28;20034;-73
2021/12/17 13:09:52;;;;;;;41.30;26.30;;;;;;;8.66;100.00;101449.06;4959406;28;20023;-73
2021/12/17 13:12:39;;;;;;;46.38;28.75;;;;;;;8.31;100.00;101431.56;4959399;28;20046;-73
2021/12/17 13:15:39;;;;;;;41.08;27.50;;;;;;;8.05;100.00;101426.22;4958991;28;20038;-72
2021/12/17 13:24:36;;;;;;;54.63;31.40;;;;;;;7.77;100.00;101426.97;4960010;28;20059;-72
2021/12/17 13:27:21;;;;;;;59.47;35.67;;;;;;;7.89;100.00;101411.38;4958867;28;20035;-71
2021/12/17 13:30:08;;;;;;;52.08;32.50;;;;;;;8.30;100.00;101414.16;4958892;28;20090;-73
2021/12/17 13:32:54;;;;;;;63.53;35.92;;;;;;;8.19;100.00;101421.91;4957926;28;20091;-73
2021/12/17 13:35:40;;;;;;;62.58;36.35;;;;;;;8.21;100.00;101419.34;4959200;28;20030;-73
2021/12/17 13:38:31;;;;;;;53.65;34.00;;;;;;;8.62;100.00;101433.38;4959056;28;20135;-73
2021/12/17 13:41:19;;;;;;;43.00;24.50;;;;;;;8.22;100.00;101428.91;4958775;28;20376;-73
2021/12/17 13:44:05;;;;;;;50.85;32.20;;;;;;;8.30;100.00;101429.81;4958676;28;20114;-73
2021/12/17 13:46:52;;;;;;;47.95;30.63;;;;;;;8.66;100.00;101440.34;4958611;28;20034;-73
2021/12/17 13:49:44;;;;;;;44.47;28.38;;;;;;;8.54;100.00;101432.50;4958336;28;20103;-73
2021/12/17 13:52:32;;;;;;;43.85;27.70;;;;;;;8.57;100.00;101445.56;4959252;28;20034;-74
2021/12/17 13:55:21;;;;;;;42.03;27.23;;;;;;;8.70;100.00;101450.81;4958365;28;20038;-72
2021/12/17 13:58:15;;;;;;;57.03;34.03;;;;;;;8.06;100.00;101456.66;4958785;28;20028;-72
2021/12/17 14:01:01;;;;;;;51.40;33.53;;;;;;;8.13;100.00;101460.19;4959020;28;20031;-72
2021/12/17 14:03:46;;;;;;;46.70;30.10;;;;;;;8.14;100.00;101464.53;4958688;28;20030;-74
2021/12/17 14:06:40;;;;;;;48.83;32.88;;;;;;;8.18;100.00;101463.66;4957835;28;20046;-73
2021/12/17 14:09:26;;;;;;;44.65;30.02;;;;;;;7.98;100.00;101475.75;4958188;28;20073;-73
2021/12/17 14:12:31;;;;;;;46.35;29.50;;;;;;;8.20;100.00;101475.84;4958003;28;20397;-72
2021/12/17 14:15:23;;;;;;;45.25;29.52;;;;;;;8.30;100.00;101482.91;4957396;28;20019;-73
2021/12/17 14:18:09;;;;;;;50.97;31.45;;;;;;;8.15;100.00;101479.31;4957130;29;20117;-72
2021/12/17 14:21:00;;;;;;;39.05;26.02;;;;;;;7.81;100.00;101485.22;4957900;28;20027;-72
2021/12/17 14:23:46;;;;;;;39.88;26.30;;;;;;;7.17;100.00;101496.94;4958357;28;20365;-72
2021/12/17 14:26:33;;;;;;;42.80;29.23;;;;;;;7.40;100.00;101507.56;4957961;28;20103;-73
2021/12/17 14:29:18;;;;;;;39.22;26.52;;;;;;;7.30;100.00;101509.22;4957511;29;20097;-73
2021/12/17 14:32:04;;;;;;;46.78;29.52;;;;;;;7.11;100.00;101512.50;4958187;28;20027;-72
2021/12/17 14:34:50;;;;;;;31.10;20.38;;;;;;;6.32;100.00;101515.13;4958001;28;20038;-72
2021/12/17 14:37:50;;;;;;;35.28;20.25;;;;;;;6.41;100.00;101523.03;4957554;28;20125;-72
2021/12/17 14:40:47;;;;;;;39.75;23.75;;;;;;;6.72;100.00;101519.94;4957826;28;20033;-72
2021/12/17 14:43:38;;;;;;;38.97;24.38;;;;;;;7.11;100.00;101525.53;4957501;28;20039;-73
2021/12/17 14:46:27;;;;;;;34.95;19.73;;;;;;;7.20;100.00;101524.75;4957719;28;20042;-72
2021/12/17 15:01:38;;;;;;;29.27;18.33;;;;;;;7.59;100.00;101536.38;4957893;28;20023;-72
2021/12/17 15:04:26;;;;;;;24.73;17.27;;;;;;;7.18;100.00;101529.94;4957407;28;20085;-72
2021/12/17 15:07:13;;;;;;;22.75;15.18;;;;;;;7.26;100.00;101524.78;4957088;28;20062;-72
2021/12/17 15:09:59;;;;;;;22.70;15.98;;;;;;;7.49;100.00;101521.53;4956041;29;20039;-72
2021/12/17 15:12:55;;;;;;;22.13;15.52;;;;;;;7.36;100.00;101535.31;4957375;28;20038;-76
2021/12/17 15:15:41;;;;;;;23.58;16.65;;;;;;;7.34;100.00;101537.03;4956914;28;20444;-72
2021/12/17 15:18:26;;;;;;;24.13;16.77;;;;;;;6.80;100.00;101528.72;4958070;28;20579;-73
2021/12/17 15:21:12;;;;;;;28.90;18.77;;;;;;;7.42;100.00;101531.88;4956901;28;20019;-71
2021/12/17 15:23:58;;;;;;;28.23;17.67;;;;;;;7.64;100.00;101528.59;4957830;28;20023;-72
2021/12/17 15:26:44;;;;;;;25.88;16.63;;;;;;;7.37;100.00;101523.16;4956328;28;20031;-73
2021/12/17 15:29:30;;;;;;;28.10;16.33;;;;;;;7.64;100.00;101521.63;4957165;28;20038;-74
2021/12/17 15:32:15;;;;;;;26.55;17.00;;;;;;;7.38;100.00;101520.56;4956851;28;20027;-73
2021/12/17 15:35:02;;;;;;;20.58;14.20;;;;;;;7.03;100.00;101515.91;4957229;28;20050;-72
2021/12/17 15:37:49;;;;;;;21.58;15.10;;;;;;;7.45;100.00;101517.16;4956970;28;20120;-74
2021/12/17 15:40:36;;;;;;;31.27;17.70;;;;;;;7.18;100.00;101537.78;4956572;28;20031;-73
2021/12/17 15:43:22;;;;;;;22.15;15.63;;;;;;;7.53;100.00;101532.84;4956363;28;20042;-73
2021/12/17 15:46:08;;;;;;;25.13;17.13;;;;;;;7.34;100.00;101530.94;4956661;28;20178;-73
2021/12/17 15:48:54;;;;;;;26.83;17.63;;;;;;;7.78;100.00;101532.16;4956663;28;20040;-73
2021/12/17 15:51:39;;;;;;;29.10;18.75;;;;;;;7.71;100.00;101527.75;4956678;28;20102;-74
2021/12/17 15:54:28;;;;;;;32.05;20.50;;;;;;;7.63;100.00;101532.06;4955765;29;20031;-73